Time;durP1;ratioP1;P1;durP2;ratioP2;P2;SDS_P1;SDS_P2;PMS_P1;PMS_P2;Temp;Humidity;BMP_temperature;BMP_pressure;BME280_temperature;BME280_humidity;BME280_pressure;Samples;Min_cycle;Max_cycle;Signal;HPM_P1;HPM_P2
2022/06/29 00:00:31;;;;;;;16.13;9.15;;;;;;;;;;4973209;28;20090;-60
2022/06/29 00:02:57;;;;;;;16.65;9.50;;;;;;;;;;4974339;28;20056;-60
2022/06/29 00:05:24;;;;;;;18.58;9.85;;;;;;;;;;4974613;28;20026;-61
2022/06/29 00:07:51;;;;;;;16.52;9.52;;;;;;;;;;4973923;28;20023;-60
2022/06/29 00:10:17;;;;;;;16.10;9.15;;;;;;;;;;4973184;28;20086;-61
2022/06/29 00:12:44;;;;;;;15.48;10.05;;;;;;;;;;4974788;28;20085;-59
2022/06/29 00:15:11;;;;;;;15.50;9.50;;;;;;;;;;4974616;28;20030;-63
2022/06/29 00:17:37;;;;;;;15.48;9.27;;;;;;;;;;4973805;28;20058;-60
2022/06/29 00:20:04;;;;;;;16.05;9.50;;;;;;;;;;4973061;28;20074;-61
2022/06/29 00:22:31;;;;;;;14.90;9.65;;;;;;;;;;4973167;28;20063;-60
2022/06/29 00:24:57;;;;;;;16.00;9.90;;;;;;;;;;4974299;28;20082;-60
2022/06/29 00:27:23;;;;;;;15.82;9.23;;;;;;;;;;4972349;28;20023;-62
2022/06/29 00:29:50;;;;;;;17.45;9.80;;;;;;;;;;4973242;28;20051;-60
2022/06/29 00:32:16;;;;;;;18.83;9.30;;;;;;;;;;4974195;28;20057;-62
2022/06/29 00:34:42;;;;;;;16.50;9.40;;;;;;;;;;4974204;28;20023;-61
2022/06/29 00:37:08;;;;;;;15.75;9.23;;;;;;;;;;4973814;28;20585;-59
2022/06/29 00:39:34;;;;;;;15.93;9.52;;;;;;;;;;4972568;28;20031;-61
2022/06/29 00:42:00;;;;;;;16.45;9.13;;;;;;;;;;4972917;28;20154;-62
2022/06/29 00:44:26;;;;;;;16.23;8.70;;;;;;;;;;4974119;28;20023;-62
2022/06/29 00:46:54;;;;;;;16.92;9.38;;;;;;;;;;4973970;28;20019;-60
2022/06/29 00:49:21;;;;;;;17.20;9.20;;;;;;;;;;4971697;28;20034;-61
2022/06/29 00:51:48;;;;;;;14.68;8.95;;;;;;;;;;4973925;28;20382;-59
2022/06/29 00:54:18;;;;;;;15.80;9.60;;;;;;;;;;4974169;28;20124;-61
2022/06/29 00:56:44;;;;;;;15.88;9.55;;;;;;;;;;4974014;28;20033;-60
2022/06/29 00:59:12;;;;;;;15.77;9.52;;;;;;;;;;4973751;28;20387;-60
2022/06/29 01:01:39;;;;;;;14.40;8.90;;;;;;;;;;4974061;28;20110;-60
2022/06/29 01:04:05;;;;;;;15.10;9.02;;;;;;;;;;4973848;28;20079;-59
2022/06/29 01:06:32;;;;;;;15.23;9.32;;;;;;;;;;4972637;28;20065;-60
2022/06/29 01:08:58;;;;;;;16.08;9.60;;;;;;;;;;4973284;28;20090;-61
2022/06/29 01:11:24;;;;;;;16.00;9.18;;;;;;;;;;4973393;28;20530;-61
2022/06/29 01:13:50;;;;;;;14.85;8.98;;;;;;;;;;4973465;28;20110;-61
2022/06/29 01:16:16;;;;;;;15.98;9.20;;;;;;;;;;4973560;28;20102;-61
2022/06/29 01:18:42;;;;;;;15.82;9.30;;;;;;;;;;4972763;28;20062;-61
2022/06/29 01:21:10;;;;;;;16.88;8.73;;;;;;;;;;4973566;28;20062;-63
2022/06/29 01:23:36;;;;;;;16.25;9.00;;;;;;;;;;4973661;28;20427;-61
2022/06/29 01:26:09;;;;;;;16.40;9.23;;;;;;;;;;4973345;28;20118;-61
2022/06/29 01:28:35;;;;;;;15.13;9.20;;;;;;;;;;4972641;28;20046;-62
2022/06/29 01:31:01;;;;;;;16.02;9.23;;;;;;;;;;5004022;23;20025;-57
2022/06/29 01:33:27;;;;;;;16.52;9.77;;;;;;;;;;5032782;28;20030;-58
2022/06/29 01:35:53;;;;;;;14.55;8.95;;;;;;;;;;5033009;28;20021;-58
2022/06/29 01:38:20;;;;;;;15.60;9.27;;;;;;;;;;5032170;28;20064;-58
2022/06/29 01:40:46;;;;;;;14.73;9.20;;;;;;;;;;5032667;28;20109;-58
2022/06/29 01:43:12;;;;;;;15.65;9.30;;;;;;;;;;5032665;28;20567;-58
2022/06/29 01:45:38;;;;;;;14.90;8.95;;;;;;;;;;5032704;28;20029;-59
2022/06/29 01:48:05;;;;;;;15.13;9.23;;;;;;;;;;5031889;28;20397;-58
2022/06/29 01:50:31;;;;;;;15.60;8.98;;;;;;;;;;5032662;28;20025;-56
2022/06/29 01:52:57;;;;;;;16.33;9.05;;;;;;;;;;5032403;28;20026;-59
2022/06/29 01:55:23;;;;;;;16.17;9.15;;;;;;;;;;5032342;28;20238;-60
2022/06/29 01:57:49;;;;;;;15.75;9.70;;;;;;;;;;5031407;28;20030;-59
2022/06/29 02:00:15;;;;;;;18.42;9.13;;;;;;;;;;5031354;28;20025;-59
2022/06/29 02:02:41;;;;;;;15.55;9.57;;;;;;;;;;5032498;28;20036;-60
2022/06/29 02:05:08;;;;;;;16.42;9.20;;;;;;;;;;5032347;28;20022;-60
2022/06/29 02:07:34;;;;;;;15.27;9.20;;;;;;;;;;5031665;28;20448;-57
2022/06/29 02:10:00;;;;;;;15.25;9.38;;;;;;;;;;5032395;28;20026;-58
2022/06/29 02:12:26;;;;;;;14.93;8.88;;;;;;;;;;5031969;28;20401;-53
2022/06/29 02:14:52;;;;;;;18.13;9.45;;;;;;;;;;5032116;28;20029;-60
2022/06/29 02:17:19;;;;;;;15.82;9.63;;;;;;;;;;5031401;28;20438;-59
2022/06/29 02:19:45;;;;;;;15.18;9.60;;;;;;;;;;5032221;28;20025;-60
2022/06/29 02:22:11;;;;;;;15.50;9.07;;;;;;;;;;5031868;28;20478;-58
2022/06/29 02:24:37;;;;;;;15.27;8.93;;;;;;;;;;5014255;28;20017;-60
2022/06/29 02:27:03;;;;;;;14.77;9.07;;;;;;;;;;5031916;28;20029;-59
2022/06/29 02:29:29;;;;;;;15.48;9.38;;;;;;;;;;5031635;28;20029;-59
2022/06/29 02:34:49;;;;;;;16.00;9.40;;;;;;;;;;5032159;28;20093;-58
2022/06/29 02:37:15;;;;;;;15.23;9.20;;;;;;;;;;5031515;28;20026;-59
2022/06/29 02:39:45;;;;;;;15.00;9.00;;;;;;;;;;5031747;28;20025;-58
2022/06/29 02:42:12;;;;;;;15.23;9.13;;;;;;;;;;5031666;28;20105;-59
2022/06/29 02:44:39;;;;;;;15.60;9.43;;;;;;;;;;5031873;28;20033;-60
2022/06/29 02:47:05;;;;;;;16.33;9.40;;;;;;;;;;5013964;28;20079;-58
2022/06/29 02:49:31;;;;;;;19.15;10.35;;;;;;;;;;5031064;28;20484;-58
2022/06/29 02:51:57;;;;;;;19.65;9.65;;;;;;;;;;5013982;28;20025;-61
2022/06/29 02:54:23;;;;;;;16.95;8.90;;;;;;;;;;5031761;28;20049;-59
2022/06/29 02:56:49;;;;;;;18.35;9.70;;;;;;;;;;5032010;28;20032;-60
2022/06/29 02:59:15;;;;;;;17.27;9.57;;;;;;;;;;5031214;28;20536;-59
2022/06/29 03:01:41;;;;;;;17.20;9.52;;;;;;;;;;5031768;28;20029;-59
2022/06/29 03:04:07;;;;;;;15.48;9.23;;;;;;;;;;5031686;28;20105;-58
2022/06/29 03:06:33;;;;;;;16.27;9.23;;;;;;;;;;5031564;28;20021;-60
2022/06/29 03:08:59;;;;;;;16.52;9.65;;;;;;;;;;5013194;28;20030;-58
2022/06/29 03:11:25;;;;;;;16.20;9.00;;;;;;;;;;5032320;28;20032;-58
2022/06/29 03:13:51;;;;;;;15.82;9.10;;;;;;;;;;5035555;28;20021;-59
2022/06/29 03:16:17;;;;;;;23.73;9.80;;;;;;;;;;5035379;28;20079;-58
2022/06/29 03:18:43;;;;;;;15.68;9.40;;;;;;;;;;5034631;28;20049;-58
2022/06/29 03:21:10;;;;;;;15.88;9.50;;;;;;;;;;5035276;28;20022;-58
2022/06/29 03:23:36;;;;;;;15.93;9.43;;;;;;;;;;5035464;28;20036;-58
2022/06/29 03:26:02;;;;;;;17.02;9.70;;;;;;;;;;5035447;28;20477;-59
2022/06/29 03:28:28;;;;;;;15.88;9.70;;;;;;;;;;5016654;28;20025;-59
2022/06/29 03:30:54;;;;;;;17.15;9.60;;;;;;;;;;5035045;28;20029;-57
2022/06/29 03:33:21;;;;;;;16.25;9.73;;;;;;;;;;5035209;28;20057;-57
2022/06/29 03:35:47;;;;;;;17.75;10.00;;;;;;;;;;5034936;28;20025;-56
2022/06/29 03:38:13;;;;;;;16.73;9.80;;;;;;;;;;5016106;28;20030;-54
2022/06/29 03:40:39;;;;;;;15.80;9.50;;;;;;;;;;5034698;28;20025;-57
2022/06/29 03:43:06;;;;;;;15.52;9.10;;;;;;;;;;5035107;28;20060;-56
2022/06/29 03:45:32;;;;;;;18.75;9.13;;;;;;;;;;5034969;28;20033;-60
2022/06/29 03:47:58;;;;;;;18.35;9.45;;;;;;;;;;5034225;28;20018;-55
2022/06/29 03:50:24;;;;;;;15.93;9.48;;;;;;;;;;5034719;28;20072;-58
2022/06/29 03:52:50;;;;;;;17.15;10.05;;;;;;;;;;5034918;28;20025;-59
2022/06/29 03:55:16;;;;;;;15.57;9.35;;;;;;;;;;5034742;28;20032;-57
2022/06/29 03:57:42;;;;;;;18.73;9.82;;;;;;;;;;5033912;28;20045;-55
2022/06/29 04:00:12;;;;;;;16.77;9.93;;;;;;;;;;5016870;28;20489;-58
2022/06/29 04:02:38;;;;;;;17.45;10.07;;;;;;;;;;5016924;28;20032;-59
2022/06/29 04:05:05;;;;;;;16.05;9.55;;;;;;;;;;5034539;28;20025;-58
2022/06/29 04:07:31;;;;;;;17.77;9.25;;;;;;;;;;5033570;28;20036;-58
2022/06/29 04:10:00;;;;;;;18.30;10.00;;;;;;;;;;5034549;28;20017;-58
2022/06/29 04:12:30;;;;;;;16.42;9.80;;;;;;;;;;5034426;28;20021;-59
2022/06/29 04:14:57;;;;;;;16.83;10.18;;;;;;;;;;5034392;28;20040;-59
2022/06/29 04:17:23;;;;;;;19.42;10.10;;;;;;;;;;5015792;28;20076;-59
2022/06/29 04:19:51;;;;;;;17.85;10.10;;;;;;;;;;5016659;28;20104;-59
2022/06/29 04:22:17;;;;;;;19.02;10.07;;;;;;;;;;5016121;28;20036;-59
2022/06/29 04:24:43;;;;;;;17.00;10.30;;;;;;;;;;5033614;28;20136;-58
2022/06/29 04:27:09;;;;;;;17.52;10.07;;;;;;;;;;5033977;28;20109;-57
2022/06/29 04:29:35;;;;;;;17.45;10.57;;;;;;;;;;5034003;28;20040;-59
2022/06/29 04:32:01;;;;;;;15.70;10.50;;;;;;;;;;5033742;28;20509;-58
2022/06/29 04:34:27;;;;;;;17.05;10.60;;;;;;;;;;5034161;28;20474;-55
2022/06/29 04:36:53;;;;;;;17.33;10.25;;;;;;;;;;5034123;28;20029;-58
2022/06/29 04:39:19;;;;;;;17.63;10.60;;;;;;;;;;5033388;28;20060;-57
2022/06/29 04:41:45;;;;;;;16.02;10.23;;;;;;;;;;5033936;28;20025;-59
2022/06/29 04:44:11;;;;;;;16.20;10.52;;;;;;;;;;5034183;28;20071;-59
2022/06/29 04:46:37;;;;;;;19.23;11.35;;;;;;;;;;5034248;28;20044;-58
2022/06/29 04:49:04;;;;;;;17.65;11.02;;;;;;;;;;5015260;28;20460;-58
2022/06/29 04:51:31;;;;;;;20.23;11.57;;;;;;;;;;5033893;28;20033;-59
2022/06/29 04:53:57;;;;;;;20.60;10.77;;;;;;;;;;5033686;28;20021;-58
2022/06/29 04:56:24;;;;;;;16.80;10.52;;;;;;;;;;5033794;28;20067;-57
2022/06/29 04:58:51;;;;;;;18.70;10.90;;;;;;;;;;5032764;28;20025;-59
2022/06/29 05:01:18;;;;;;;16.92;10.90;;;;;;;;;;5033367;28;20036;-59
2022/06/29 05:03:44;;;;;;;19.27;10.63;;;;;;;;;;5033624;28;20079;-59
2022/06/29 05:06:10;;;;;;;17.15;10.63;;;;;;;;;;5015601;28;20045;-58
2022/06/29 05:08:36;;;;;;;17.05;11.00;;;;;;;;;;5014825;28;20481;-57
2022/06/29 05:11:02;;;;;;;17.05;10.57;;;;;;;;;;5032799;28;20116;-59
2022/06/29 05:13:28;;;;;;;16.13;10.25;;;;;;;;;;5033192;28;20113;-59
2022/06/29 05:15:54;;;;;;;17.88;11.25;;;;;;;;;;5033028;28;20441;-59
2022/06/29 05:18:20;;;;;;;16.70;10.95;;;;;;;;;;5032462;28;20081;-59
2022/06/29 05:20:46;;;;;;;17.13;11.15;;;;;;;;;;5032745;28;20028;-59
2022/06/29 05:23:12;;;;;;;19.13;11.05;;;;;;;;;;5015453;28;20026;-59
2022/06/29 05:25:39;;;;;;;16.90;11.18;;;;;;;;;;5032932;28;20102;-59
2022/06/29 05:28:05;;;;;;;18.73;11.63;;;;;;;;;;5032281;28;20470;-60
2022/06/29 05:30:31;;;;;;;19.05;11.27;;;;;;;;;;5032926;28;20029;-59
2022/06/29 05:32:57;;;;;;;16.92;10.82;;;;;;;;;;5032716;28;20030;-58
2022/06/29 05:35:23;;;;;;;18.02;11.05;;;;;;;;;;5032695;28;20047;-55
2022/06/29 05:37:49;;;;;;;17.27;10.93;;;;;;;;;;5031971;28;20100;-60
2022/06/29 05:40:16;;;;;;;16.55;10.88;;;;;;;;;;5032274;28;20034;-60
2022/06/29 05:42:42;;;;;;;16.08;11.20;;;;;;;;;;5032322;28;20022;-60
2022/06/29 05:45:08;;;;;;;16.85;10.95;;;;;;;;;;5032343;28;20018;-60
2022/06/29 05:47:34;;;;;;;17.05;11.10;;;;;;;;;;5031633;28;20108;-59
2022/06/29 05:50:00;;;;;;;17.17;11.18;;;;;;;;;;5014778;28;20032;-59
2022/06/29 05:52:27;;;;;;;16.95;11.82;;;;;;;;;;5014604;28;20075;-59
2022/06/29 05:54:53;;;;;;;17.15;12.15;;;;;;;;;;5032345;28;20045;-60
2022/06/29 05:57:19;;;;;;;16.90;10.60;;;;;;;;;;5031584;28;20052;-58
2022/06/29 05:59:47;;;;;;;17.48;10.88;;;;;;;;;;5032173;28;20104;-58
2022/06/29 06:02:13;;;;;;;16.25;11.15;;;;;;;;;;5032341;28;20044;-58
2022/06/29 06:04:39;;;;;;;15.93;11.32;;;;;;;;;;5032334;28;20021;-58
2022/06/29 06:07:05;;;;;;;18.25;11.30;;;;;;;;;;5032134;28;20053;-58
2022/06/29 06:09:32;;;;;;;16.73;11.20;;;;;;;;;;5031456;28;20022;-57
2022/06/29 06:11:58;;;;;;;18.02;11.60;;;;;;;;;;5032227;28;20029;-59
2022/06/29 06:14:24;;;;;;;17.73;11.50;;;;;;;;;;5032020;28;20026;-56
2022/06/29 06:16:50;;;;;;;18.75;11.30;;;;;;;;;;5032217;28;20458;-60
2022/06/29 06:19:17;;;;;;;17.25;11.93;;;;;;;;;;5013691;28;20409;-59
2022/06/29 06:21:43;;;;;;;16.73;11.68;;;;;;;;;;5014291;28;20103;-60
2022/06/29 06:24:09;;;;;;;15.95;11.00;;;;;;;;;;5032025;28;20021;-58
2022/06/29 06:26:35;;;;;;;17.35;11.23;;;;;;;;;;5032134;28;20025;-60
2022/06/29 06:29:01;;;;;;;16.75;11.32;;;;;;;;;;5031042;28;20025;-59
2022/06/29 06:31:27;;;;;;;16.13;11.88;;;;;;;;;;5031506;28;20040;-60
2022/06/29 06:33:54;;;;;;;18.38;11.93;;;;;;;;;;5031767;28;20428;-60
2022/06/29 06:36:20;;;;;;;19.98;12.32;;;;;;;;;;5032156;28;20025;-60
2022/06/29 06:38:46;;;;;;;18.83;11.65;;;;;;;;;;5027784;28;20091;-59
2022/06/29 06:41:27;;;;;;;17.35;11.68;;;;;;;;;;5031555;28;20026;-59
2022/06/29 06:43:57;;;;;;;17.90;11.80;;;;;;;;;;5031998;28;20052;-59
2022/06/29 06:46:23;;;;;;;20.63;11.63;;;;;;;;;;5030899;28;20114;-58
2022/06/29 06:48:50;;;;;;;18.85;12.05;;;;;;;;;;5028882;28;20021;-60
2022/06/29 06:51:17;;;;;;;16.25;11.05;;;;;;;;;;5013708;28;20405;-60
2022/06/29 06:53:43;;;;;;;17.10;11.73;;;;;;;;;;5013876;28;20486;-60
2022/06/29 06:56:09;;;;;;;16.15;10.93;;;;;;;;;;5031379;28;20397;-60
2022/06/29 06:58:36;;;;;;;19.17;11.65;;;;;;;;;;5012968;28;20026;-60
2022/06/29 07:01:03;;;;;;;17.25;11.75;;;;;;;;;;5030990;28;20474;-59
2022/06/29 07:03:31;;;;;;;17.42;11.50;;;;;;;;;;5013599;28;20108;-59
2022/06/29 07:05:57;;;;;;;17.42;11.30;;;;;;;;;;5013738;28;20424;-61
2022/06/29 07:08:23;;;;;;;21.75;11.55;;;;;;;;;;5030587;28;20107;-56
2022/06/29 07:10:49;;;;;;;16.02;11.05;;;;;;;;;;5031291;28;20045;-56
2022/06/29 07:13:15;;;;;;;15.98;10.80;;;;;;;;;;5031382;28;20541;-59
2022/06/29 07:15:41;;;;;;;25.23;12.18;;;;;;;;;;5031524;28;20025;-59
2022/06/29 07:18:07;;;;;;;16.73;11.30;;;;;;;;;;5030525;28;20022;-63
2022/06/29 07:20:33;;;;;;;17.52;10.65;;;;;;;;;;5031490;28;20085;-58
2022/06/29 07:22:59;;;;;;;18.52;11.43;;;;;;;;;;5031413;28;20065;-59
2022/06/29 07:25:25;;;;;;;16.75;11.02;;;;;;;;;;5031064;28;20022;-54
2022/06/29 07:27:51;;;;;;;15.50;10.50;;;;;;;;;;5030865;28;20024;-59
2022/06/29 07:30:17;;;;;;;19.38;11.70;;;;;;;;;;5031310;28;20025;-59
2022/06/29 07:32:43;;;;;;;18.95;11.80;;;;;;;;;;5052171;23;20464;-57
2022/06/29 07:35:09;;;;;;;16.67;11.82;;;;;;;;;;5031188;28;20033;-57
2022/06/29 07:37:35;;;;;;;17.70;11.65;;;;;;;;;;5030372;28;20026;-58
2022/06/29 07:40:01;;;;;;;18.48;12.05;;;;;;;;;;5031232;28;20017;-56
2022/06/29 07:42:27;;;;;;;18.15;12.15;;;;;;;;;;5030880;28;20579;-54
2022/06/29 07:44:53;;;;;;;15.98;11.63;;;;;;;;;;5030949;28;20482;-56
2022/06/29 07:47:19;;;;;;;16.75;11.80;;;;;;;;;;5030231;28;20040;-56
2022/06/29 07:49:45;;;;;;;16.15;11.77;;;;;;;;;;5030827;28;20017;-57
2022/06/29 07:52:11;;;;;;;18.00;12.15;;;;;;;;;;5030853;28;20426;-59
2022/06/29 07:54:37;;;;;;;19.27;11.88;;;;;;;;;;5030761;28;20021;-57
2022/06/29 07:57:03;;;;;;;15.98;11.40;;;;;;;;;;5031145;28;20036;-58
2022/06/29 07:59:29;;;;;;;20.13;12.43;;;;;;;;;;5032532;28;20087;-57
2022/06/29 08:01:55;;;;;;;17.85;11.57;;;;;;;;;;5034046;28;20370;-57
2022/06/29 08:04:21;;;;;;;17.50;11.75;;;;;;;;;;5037222;28;20029;-57
2022/06/29 08:06:47;;;;;;;17.70;12.18;;;;;;;;;;5034546;28;20022;-58
2022/06/29 08:09:13;;;;;;;18.60;12.75;;;;;;;;;;5035685;28;20029;-57
2022/06/29 08:11:39;;;;;;;19.42;12.27;;;;;;;;;;5034937;28;20056;-58
2022/06/29 08:14:05;;;;;;;18.13;12.18;;;;;;;;;;5035228;28;20439;-57
2022/06/29 08:16:31;;;;;;;16.75;11.63;;;;;;;;;;5035798;28;20049;-58
2022/06/29 08:18:57;;;;;;;15.77;11.43;;;;;;;;;;5034689;28;20116;-58
2022/06/29 08:21:23;;;;;;;20.08;12.23;;;;;;;;;;5017102;28;20478;-58
2022/06/29 08:23:49;;;;;;;18.98;12.10;;;;;;;;;;5036394;28;20049;-57
2022/06/29 08:26:16;;;;;;;21.63;12.90;;;;;;;;;;5034961;28;20100;-57
2022/06/29 08:28:42;;;;;;;16.80;11.80;;;;;;;;;;5035503;28;20490;-56
2022/06/29 08:31:08;;;;;;;16.98;11.45;;;;;;;;;;5017796;28;20029;-56
2022/06/29 08:33:34;;;;;;;16.90;11.40;;;;;;;;;;5017933;28;20041;-56
2022/06/29 08:36:00;;;;;;;18.98;11.30;;;;;;;;;;5034426;28;20032;-58
2022/06/29 08:38:26;;;;;;;17.27;11.90;;;;;;;;;;5015846;28;20033;-58
2022/06/29 08:40:52;;;;;;;16.52;11.38;;;;;;;;;;5034277;28;20501;-58
2022/06/29 08:43:18;;;;;;;16.88;12.07;;;;;;;;;;5033829;28;20033;-57
2022/06/29 08:45:45;;;;;;;17.33;12.07;;;;;;;;;;5033635;28;20053;-58
2022/06/29 08:48:12;;;;;;;18.45;12.43;;;;;;;;;;5032739;28;20079;-58
2022/06/29 08:50:41;;;;;;;18.38;12.38;;;;;;;;;;5033326;28;20033;-57
2022/06/29 08:53:08;;;;;;;17.75;12.35;;;;;;;;;;5033079;28;20109;-57
2022/06/29 08:55:39;;;;;;;16.77;11.98;;;;;;;;;;5033264;28;20028;-60
2022/06/29 08:58:06;;;;;;;17.23;12.32;;;;;;;;;;5032620;28;20018;-60
2022/06/29 09:00:36;;;;;;;18.93;11.47;;;;;;;;;;4682396;28;10000586;-61
2022/06/29 09:03:02;;;;;;;16.38;12.60;;;;;;;;;;5040105;28;20025;-60
2022/06/29 09:05:28;;;;;;;18.45;11.57;;;;;;;;;;5045512;28;20463;-59
2022/06/29 09:07:54;;;;;;;20.13;11.93;;;;;;;;;;5048518;28;20025;-58
2022/06/29 09:10:23;;;;;;;18.90;11.82;;;;;;;;;;5028954;28;20040;-59
2022/06/29 09:12:51;;;;;;;18.58;12.18;;;;;;;;;;5029340;28;20473;-59
2022/06/29 09:15:29;;;;;;;18.13;11.82;;;;;;;;;;5029878;28;20032;-59
2022/06/29 09:17:55;;;;;;;16.95;11.68;;;;;;;;;;5041828;28;20013;-57
2022/06/29 09:20:21;;;;;;;20.65;12.32;;;;;;;;;;5050070;28;20932;-61
2022/06/29 09:22:54;;;;;;;21.38;11.73;;;;;;;;;;5050014;28;20028;-60
2022/06/29 09:25:21;;;;;;;18.15;12.25;;;;;;;;;;5050325;28;20135;-58
2022/06/29 09:27:47;;;;;;;17.88;11.90;;;;;;;;;;5050600;28;20021;-61
2022/06/29 09:30:30;;;;;;;20.05;12.30;;;;;;;;;;5052028;28;20021;-58
2022/06/29 09:33:05;;;;;;;17.58;11.52;;;;;;;;;;5052630;28;20029;-60
2022/06/29 09:35:32;;;;;;;17.58;11.85;;;;;;;;;;5035882;28;20484;-60
2022/06/29 09:38:24;;;;;;;18.83;11.57;;;;;;;;;;5032501;28;20037;-59
2022/06/29 09:41:00;;;;;;;16.50;11.40;;;;;;;;;;5028998;28;20060;-58
2022/06/29 09:43:27;;;;;;;17.80;11.90;;;;;;;;;;5032691;28;20532;-59
2022/06/29 09:45:54;;;;;;;17.00;11.57;;;;;;;;;;5032859;28;20037;-59
2022/06/29 09:48:22;;;;;;;19.60;11.77;;;;;;;;;;5030990;28;20022;-58
2022/06/29 09:50:52;;;;;;;18.80;12.20;;;;;;;;;;5032598;28;20022;-58
2022/06/29 09:53:19;;;;;;;19.73;12.27;;;;;;;;;;5032360;28;20059;-61
2022/06/29 09:55:48;;;;;;;16.30;11.65;;;19.10;99.90;;;;;;5033114;28;20037;-58
2022/06/29 09:58:17;;;;;;;17.08;12.48;;;;;;;;;;5032198;28;20024;-58
2022/06/29 10:03:28;;;;;;;17.40;12.43;;;;;;;;;;5032736;28;20029;-58
2022/06/29 10:05:55;;;;;;;19.50;12.80;;;;;;;;;;5032993;28;20116;-59
2022/06/29 10:08:21;;;;;;;17.98;12.52;;;;;;;;;;5032068;28;20615;-59
2022/06/29 10:10:52;;;;;;;18.88;12.50;;;;;;;;;;5032359;28;20036;-56
2022/06/29 10:16:09;;;;;;;18.10;12.13;;;;;;;;;;5032365;28;20037;-59
2022/06/29 10:18:47;;;;;;;17.65;11.90;;;;;;;;;;5031801;28;20113;-55
2022/06/29 10:21:14;;;;;;;;;;;;;;;;;;5031822;28;20021;-56
2022/06/29 10:23:42;;;;;;;17.77;12.27;;;;;;;;;;5032059;28;19905;-61
2022/06/29 10:26:39;;;;;;;16.65;12.02;;;;;;;;;;5032974;28;20009;-58
2022/06/29 10:29:08;;;;;;;16.42;12.07;;;;;;;;;;5016110;28;20034;-61
2022/06/29 10:31:53;;;;;;;15.85;12.13;;;;;;;;;;5032563;28;20112;-59
2022/06/29 10:34:34;;;;;;;16.65;12.35;;;;;;;;;;5037118;28;20025;-57
2022/06/29 10:37:04;;;;;;;17.23;12.63;;;;;;;;;;5053505;28;20024;-58
2022/06/29 10:39:48;;;;;;;18.23;12.10;;;;;;;;;;5051800;28;20480;-58
2022/06/29 10:45:16;;;;;;;18.88;12.95;;;;;;;;;;5052029;28;20389;-60
2022/06/29 10:47:47;;;;;;;17.98;12.50;;;;;;;;;;5051613;28;20017;-57
2022/06/29 10:50:20;;;;;;;17.17;12.10;;;;;;;;;;5052464;28;20458;-61
2022/06/29 10:52:47;;;;;;;17.42;12.60;;;;;;;;;;5051818;28;20009;-58
2022/06/29 10:55:13;;;;;;;16.40;12.75;;;;;;;;;;5051652;28;20103;-62
2022/06/29 10:57:42;;;;;;;16.77;12.63;;;;;;;;;;5050693;28;20056;-60
2022/06/29 11:00:09;;;;;;;16.30;11.90;;;;;;;;;;5032076;28;20150;-60
2022/06/29 11:02:38;;;;;;;17.05;11.88;;;;;;;;;;5031981;28;20028;-57
2022/06/29 11:05:04;;;;;;;19.85;12.55;;;;;;;;;;5031760;28;20037;-58
2022/06/29 11:13:00;;;;;;;16.55;12.23;;;;;;;;;;5032676;28;20055;-56
2022/06/29 11:18:13;;;;;;;18.38;13.10;;;;;;;;;;5031168;28;20025;-60
2022/06/29 11:20:40;;;;;;;17.63;12.77;;;;;;;;;;5031544;28;20156;-59
2022/06/29 11:23:10;;;;;;;21.95;12.88;;;;;;;;;;5031673;28;20167;-58
2022/06/29 11:25:37;;;;;;;18.78;11.53;;;;;;;;;;4335150;28;10021471;-58
2022/06/29 11:28:04;;;;;;;23.15;14.05;;;;;;;;;;5028580;28;20017;-63
2022/06/29 11:30:30;;;;;;;16.10;12.93;;;;;;;;;;5030825;28;20036;-61
2022/06/29 11:32:56;;;;;;;16.88;13.20;;;;;;;;;;5032872;28;20037;-59
2022/06/29 11:35:23;;;;;;;18.63;12.80;;;;;;;;;;5035151;28;20045;-61
2022/06/29 11:37:53;;;;;;;17.73;13.90;;;;;;;;;;5017083;28;20069;-59
2022/06/29 11:40:20;;;;;;;18.13;14.57;;;;;;;;;;5035273;28;20108;-59
2022/06/29 11:43:05;;;;;;;17.90;13.15;;;;;;;;;;5035081;28;20029;-56
2022/06/29 11:45:43;;;;;;;18.65;13.45;;;;;;;;;;5035299;28;20373;-60
2022/06/29 11:48:21;;;;;;;18.48;13.63;;;;;;;;;;5034312;28;20024;-58
2022/06/29 11:50:52;;;;;;;16.52;12.70;;;;;;;;;;5035230;28;20033;-61
2022/06/29 11:53:37;;;;;;;18.65;13.30;;;;;;;;;;5035051;28;20052;-60
2022/06/29 11:56:09;;;;;;;16.75;12.88;;;;;;;;;;5034985;28;20036;-60
2022/06/29 11:58:35;;;;;;;16.33;12.65;;;;;;;;;;5034278;28;20017;-60
2022/06/29 12:01:01;;;;;;;17.95;13.18;;;;;;;;;;5017076;28;20388;-58
2022/06/29 12:03:27;;;;;;;16.73;12.90;;;;;;;;;;5017064;28;20112;-61
2022/06/29 12:06:00;;;;;;;17.65;12.38;;;;;;;;;;5035070;28;20021;-60
2022/06/29 12:08:29;;;;;;;16.90;12.88;;;;;;;;;;5016339;28;20013;-58
2022/06/29 12:10:56;;;;;;;19.02;13.20;;;;;;;;;;5035011;28;20420;-60
2022/06/29 12:13:22;;;;;;;18.20;13.45;;;;;;;;;;5034627;28;20025;-57
2022/06/29 12:15:48;;;;;;;17.80;13.25;;;;;;;;;;5034661;28;20374;-61
2022/06/29 12:18:16;;;;;;;17.52;14.00;;;;;;;;;;5033566;28;20100;-60
2022/06/29 12:20:42;;;;;;;17.27;13.50;;;;;;;;;;5034486;28;20021;-60
2022/06/29 12:23:08;;;;;;;19.33;13.82;;;;;;;;;;5034879;28;20445;-61
2022/06/29 12:25:34;;;;;;;18.15;13.48;;;;;;;;;;5034283;28;20025;-59
2022/06/29 12:28:00;;;;;;;19.83;13.93;;;;;;;;;;5015840;28;20022;-58
2022/06/29 12:30:26;;;;;;;19.52;14.20;;;;;;;;;;5034923;28;20021;-58
2022/06/29 12:32:52;;;;;;;17.77;13.75;;;;;;;;;;5034725;28;20030;-60
2022/06/29 12:35:18;;;;;;;19.25;13.80;;;;;;;;;;5034684;28;20016;-60
2022/06/29 12:37:44;;;;;;;18.45;13.55;;;;;;;;;;5015769;28;20021;-57
2022/06/29 12:40:13;;;;;;;17.90;14.05;;;;;;;;;;5047417;28;20104;-62
2022/06/29 12:42:40;;;;;;;17.85;13.95;;;;;;;;;;5053928;28;20449;-59
2022/06/29 12:45:07;;;;;;;18.92;14.05;;;;;;;;;;5040200;28;20021;-61
2022/06/29 12:47:33;;;;;;;19.60;14.65;;;;;;;;;;5033325;28;20017;-59
2022/06/29 12:50:01;;;;;;;20.33;14.48;;;;;;;;;;5033040;28;20024;-59
2022/06/29 12:52:27;;;;;;;;;;;;;;;;;;5016535;28;20075;-58
2022/06/29 12:54:53;;;;;;;18.70;14.02;;;;;;;;;;5034070;28;19900;-57
2022/06/29 12:57:19;;;;;;;18.42;13.77;;;;;;;;;;5032925;28;20025;-60
2022/06/29 12:59:45;;;;;;;18.27;13.85;;;;;;;;;;5033583;28;20056;-57
2022/06/29 13:02:12;;;;;;;18.60;14.25;;;;;;;;;;5032913;28;20052;-60
2022/06/29 13:04:38;;;;;;;18.23;13.88;;;;;;;;;;5033186;28;20021;-59
2022/06/29 13:07:04;;;;;;;18.02;14.18;;;;;;;;;;5033491;28;20087;-59
2022/06/29 13:09:31;;;;;;;17.85;13.95;;;;;;;;;;5032874;28;20029;-59
2022/06/29 13:11:57;;;;;;;18.02;14.13;;;;;;;;;;5033480;28;20032;-58
2022/06/29 13:14:23;;;;;;;17.90;13.57;;;;;;;;;;5033447;28;20029;-58
2022/06/29 13:16:49;;;;;;;17.10;13.85;;;;;;;;;;5032913;28;20033;-58
2022/06/29 13:19:15;;;;;;;18.23;13.80;;;;;;;;;;5032714;28;20079;-59
2022/06/29 13:21:41;;;;;;;16.65;12.68;;;;;;;;;;4325818;28;10000867;-59
2022/06/29 13:24:07;;;;;;;19.08;13.60;;;;;;;;;;5010259;28;20029;-60
2022/06/29 13:26:36;;;;;;;18.55;13.57;;;;;;;;;;5010439;28;20030;-58
2022/06/29 13:29:02;;;;;;;19.13;14.82;;;;;;;;;;5010273;28;20036;-59
2022/06/29 13:31:29;;;;;;;18.75;14.35;;;;;;;;;;5009640;28;20022;-59
2022/06/29 13:33:55;;;;;;;18.65;14.63;;;;;;;;;;5047169;23;20041;-60
2022/06/29 13:36:21;;;;;;;17.15;14.45;;;;;;;;;;5028150;28;20057;-61
2022/06/29 13:38:47;;;;;;;17.17;13.88;;;;;;;;;;5026647;28;20378;-61
2022/06/29 13:41:15;;;;;;;18.42;14.18;;;;;;;;;;5008164;28;20037;-62
2022/06/29 13:43:41;;;;;;;17.52;14.90;;;;;;;;;;5008440;28;20165;-60
2022/06/29 13:46:07;;;;;;;20.67;14.90;;;;;;;;;;5008172;28;20428;-57
2022/06/29 13:48:34;;;;;;;17.95;15.43;;;;;;;;;;5007606;28;20108;-59
2022/06/29 13:51:00;;;;;;;20.08;14.70;;;;;;;;;;5010782;28;20040;-62
2022/06/29 13:53:26;;;;;;;18.05;14.90;;;;;;;;;;5016626;28;20359;-61
2022/06/29 13:55:52;;;;;;;18.27;15.02;;;;;;;;;;5016736;28;20117;-61
2022/06/29 13:58:19;;;;;;;19.42;15.10;;;;;;;;;;5017287;28;20099;-59
2022/06/29 14:00:45;;;;;;;18.63;15.10;;;;;;;;;;5018691;28;20117;-61
2022/06/29 14:03:11;;;;;;;18.50;14.63;;;;;;;;;;5025830;28;20043;-59
2022/06/29 14:05:37;;;;;;;18.58;15.25;;;;;;;;;;5027723;28;20022;-61
2022/06/29 14:08:03;;;;;;;19.40;14.55;;;;;;;;;;5026876;28;20056;-60
2022/06/29 14:10:29;;;;;;;17.80;14.70;;;;;;;;;;5027597;28;20372;-59
2022/06/29 14:12:55;;;;;;;18.30;14.68;;;;;;;;;;5009739;28;20030;-60
2022/06/29 14:15:21;;;;;;;17.55;14.00;;;;;;;;;;5029693;28;20017;-60
2022/06/29 14:17:47;;;;;;;19.63;15.37;;;;;;;;;;4680546;28;10000542;-60
2022/06/29 14:20:13;;;;;;;20.60;14.32;;;;;;;;;;5027068;28;20264;-60
2022/06/29 14:22:39;;;;;;;17.50;14.15;;;;;;;;;;5027044;28;20022;-59
2022/06/29 14:25:07;;;;;;;18.55;14.80;;;;;;;;;;5027593;28;20076;-60
2022/06/29 14:27:33;;;;;;;17.52;14.55;;;;;;;;;;5026592;28;20025;-60
2022/06/29 14:30:00;;;;;;;19.52;15.07;;;;;;;;;;5027034;28;20113;-64
2022/06/29 14:32:26;;;;;;;20.02;15.65;;;;;;;;;;5027420;28;20033;-62
2022/06/29 14:34:52;;;;;;;18.67;14.65;;;;;;;;;;5027277;28;20410;-61
2022/06/29 14:37:18;;;;;;;19.00;14.68;;;;;;;;;;5026811;28;20037;-61
2022/06/29 14:39:44;;;;;;;17.45;15.05;;;;;;;;;;5009506;28;20025;-62